createdAt,value
2019-05-02T00:02:18.981Z,97614.34
2019-05-02T00:04:51.051Z,97618.62
2019-05-02T00:07:20.231Z,97617.45
2019-05-02T00:09:50.429Z,97623.51
2019-05-02T00:12:19.590Z,97625.27
2019-05-02T00:14:48.555Z,97623.05
2019-05-02T00:17:20.378Z,97621.80
2019-05-02T00:19:49.825Z,97616.13
2019-05-02T00:22:19.035Z,97620.52
2019-05-02T00:24:48.167Z,97626.63
2019-05-02T00:27:17.020Z,97623.09
2019-05-02T00:29:45.733Z,97627.88
2019-05-02T00:32:18.248Z,97619.65
2019-05-02T00:34:44.897Z,97624.86
2019-05-02T00:37:13.599Z,97628.84
2019-05-02T00:39:45.187Z,97630.54
2019-05-02T00:42:17.335Z,97629.30
2019-05-02T00:44:46.986Z,97629.25
2019-05-02T00:47:15.202Z,97631.87
2019-05-02T00:49:45.479Z,97630.99
2019-05-02T00:52:14.189Z,97627.53
2019-05-02T00:54:42.891Z,97626.24
2019-05-02T00:57:14.950Z,97627.15
2019-05-02T00:59:42.468Z,97627.59
2019-05-02T01:02:26.184Z,97625.44
2019-05-02T01:04:59.275Z,97620.27
2019-05-02T01:07:26.766Z,97622.89
2019-05-02T01:09:55.709Z,97619.86
2019-05-02T01:12:26.698Z,97620.31
2019-05-02T01:14:54.903Z,97622.92
2019-05-02T01:17:26.151Z,97621.59
2019-05-02T01:19:54.040Z,97619.45
2019-05-02T01:22:22.746Z,97621.98
2019-05-02T01:24:51.456Z,97623.28
2019-05-02T01:27:21.779Z,97619.86
2019-05-02T01:29:52.052Z,97618.55
2019-05-02T01:32:37.396Z,97622.84
2019-05-02T01:35:08.556Z,97620.68
2019-05-02T01:37:56.110Z,97618.55
2019-05-02T01:40:24.908Z,97614.62
2019-05-02T01:42:55.113Z,97612.88
2019-05-02T01:45:23.823Z,97619.81
2019-05-02T01:47:52.523Z,97621.94
2019-05-02T01:50:21.293Z,97621.94
2019-05-02T01:52:53.747Z,97624.17
2019-05-02T01:55:21.271Z,97628.94
2019-05-02T01:57:51.041Z,97627.65
2019-05-02T02:00:19.752Z,97624.19
2019-05-02T02:02:48.527Z,97629.83
2019-05-02T02:05:17.227Z,97630.25
2019-05-02T02:07:45.938Z,97633.73
2019-05-02T02:10:15.000Z,97640.66
2019-05-02T02:13:02.909Z,97637.63
2019-05-02T02:15:15.647Z,97636.77
2019-05-02T02:17:46.797Z,97650.65
2019-05-02T02:20:19.374Z,97648.52
2019-05-02T02:22:49.657Z,97644.16
2019-05-02T02:25:32.128Z,97649.34
2019-05-02T02:28:02.160Z,97652.84
2019-05-02T02:30:30.885Z,97654.16
2019-05-02T02:33:00.382Z,97652.41
2019-05-02T02:35:30.081Z,97654.14
2019-05-02T02:37:58.780Z,97655.87
2019-05-02T02:40:32.600Z,97653.28
2019-05-02T02:42:57.931Z,97656.30
2019-05-02T02:45:30.612Z,97652.42
2019-05-02T02:48:00.477Z,97652.87
2019-05-02T02:50:29.731Z,97656.76
2019-05-02T02:52:58.441Z,97655.45
2019-05-02T02:55:27.148Z,97660.20
2019-05-02T02:57:58.494Z,97660.22
2019-05-02T03:00:26.280Z,97664.13
2019-05-02T03:02:55.028Z,97659.78
2019-05-02T03:05:25.929Z,97668.87
2019-05-02T03:07:59.611Z,97668.48
2019-05-02T03:10:24.598Z,97670.67
2019-05-02T03:13:14.901Z,97678.91
2019-05-02T03:15:43.354Z,97673.72
2019-05-02T03:18:12.059Z,97684.57
2019-05-02T03:20:42.115Z,97688.89
2019-05-02T03:23:14.989Z,97688.04
2019-05-02T03:25:50.698Z,97695.40
2019-05-02T03:28:18.324Z,97691.92
2019-05-02T03:30:42.793Z,97693.25
2019-05-02T03:33:12.543Z,97698.02
2019-05-02T03:35:48.109Z,97704.97
2019-05-02T03:38:12.016Z,97704.95
2019-05-02T03:40:41.339Z,97700.62
2019-05-02T03:43:10.246Z,97704.55
2019-05-02T03:45:42.818Z,97711.91
2019-05-02T03:48:09.905Z,97708.88
2019-05-02T03:50:39.004Z,97708.00
2019-05-02T03:53:07.816Z,97708.86
2019-05-02T03:55:36.871Z,97712.77
2019-05-02T03:58:13.420Z,97707.13
2019-05-02T04:00:36.020Z,97714.95
2019-05-02T04:03:04.839Z,97716.25
2019-05-02T04:05:39.666Z,97717.09
2019-05-02T04:08:05.531Z,97722.30
2019-05-02T04:10:45.480Z,97729.24
2019-05-02T04:13:14.935Z,97730.11
2019-05-02T04:15:44.539Z,97730.98
2019-05-02T04:18:15.336Z,97733.58
2019-05-02T04:20:49.616Z,97734.45
2019-05-02T04:23:21.311Z,97737.05
2019-05-02T04:25:48.384Z,97734.89
2019-05-02T04:28:17.785Z,97730.12
2019-05-02T04:30:51.181Z,97737.90
2019-05-02T04:33:16.928Z,97736.63
2019-05-02T04:35:45.631Z,97740.96
2019-05-02T04:38:20.057Z,97739.66
2019-05-02T04:40:46.651Z,97738.36
2019-05-02T04:43:18.218Z,97740.97
2019-05-02T04:45:55.832Z,97744.44
2019-05-02T04:48:18.398Z,97744.42
2019-05-02T04:50:48.825Z,97750.06
2019-05-02T04:53:18.922Z,97753.96
2019-05-02T04:55:52.074Z,97750.94
2019-05-02T04:58:27.652Z,97752.23
2019-05-02T05:00:53.670Z,97763.06
2019-05-02T05:03:21.198Z,97760.89
2019-05-02T05:05:49.252Z,97763.09
2019-05-02T05:08:26.387Z,97764.80
2019-05-02T05:10:48.401Z,97767.41
2019-05-02T05:13:22.745Z,97764.83
2019-05-02T05:15:51.662Z,97768.72
2019-05-02T05:18:18.031Z,97773.92
2019-05-02T05:20:52.954Z,97780.86
2019-05-02T05:23:21.498Z,97785.22
2019-05-02T05:26:03.374Z,97780.86
2019-05-02T05:28:27.364Z,97782.16
2019-05-02T05:30:58.211Z,97781.73
2019-05-02T05:33:28.366Z,97787.38
2019-05-02T05:35:57.840Z,97791.27
2019-05-02T05:38:28.562Z,97793.88
2019-05-02T05:40:58.053Z,97793.86
2019-05-02T05:43:27.641Z,97798.22
2019-05-02T05:46:09.081Z,97801.69
2019-05-02T05:48:27.442Z,97805.58
2019-05-02T05:50:57.971Z,97805.16
2019-05-02T05:53:28.194Z,97799.50
2019-05-02T05:55:58.916Z,97793.44
2019-05-02T05:58:28.466Z,97800.39
2019-05-02T06:00:58.401Z,97795.16
2019-05-02T06:03:27.807Z,97802.11
2019-05-02T06:05:57.974Z,97795.63
2019-05-02T06:08:26.806Z,97801.72
2019-05-02T06:10:55.551Z,97798.67
2019-05-02T06:13:24.267Z,97802.53
2019-05-02T06:16:02.162Z,97801.20
2019-05-02T06:18:23.423Z,97805.47
2019-05-02T06:20:52.136Z,97806.71
2019-05-02T06:23:20.888Z,97809.29
2019-05-02T06:25:49.606Z,97796.61
2019-05-02T06:28:18.336Z,97805.70
2019-05-02T06:30:47.036Z,97808.66
2019-05-02T06:33:15.751Z,97811.22
2019-05-02T06:35:44.498Z,97808.14
2019-05-02T06:38:13.204Z,97814.19
2019-05-02T06:40:44.657Z,97811.91
2019-05-02T06:43:12.365Z,97812.04
2019-05-02T06:45:41.060Z,97816.69
2019-05-02T06:48:17.279Z,97815.25
2019-05-02T06:50:40.554Z,97811.12
2019-05-02T06:53:11.155Z,97812.52
2019-05-02T06:55:40.043Z,97812.48
2019-05-02T06:58:08.814Z,97814.65
2019-05-02T07:00:56.042Z,97811.88
2019-05-02T07:03:10.241Z,97809.24
2019-05-02T07:05:38.444Z,97814.05
2019-05-02T07:08:12.011Z,97820.03
2019-05-02T07:10:44.345Z,97818.78
2019-05-02T07:13:10.842Z,97816.42
2019-05-02T07:15:40.677Z,97814.30
2019-05-02T07:18:13.702Z,97814.55
2019-05-02T07:20:42.624Z,97817.62
2019-05-02T07:23:16.169Z,97816.56
2019-05-02T07:25:43.948Z,97815.59
2019-05-02T07:28:12.210Z,97820.00
2019-05-02T07:30:41.023Z,97814.26
2019-05-02T07:33:09.793Z,97816.47
2019-05-02T07:35:38.500Z,97810.99
2019-05-02T07:38:07.214Z,97813.27
2019-05-02T07:40:35.938Z,97823.47
2019-05-02T07:43:04.753Z,97823.49
2019-05-02T07:45:33.506Z,97826.74
2019-05-02T07:48:02.217Z,97826.34
2019-05-02T07:50:30.932Z,97824.88
2019-05-02T07:52:59.658Z,97819.36
2019-05-02T07:55:30.636Z,97820.06
2019-05-02T07:58:01.982Z,97819.16
2019-05-02T08:00:32.037Z,97812.22
2019-05-02T08:02:59.741Z,97813.54
2019-05-02T08:05:28.458Z,97817.12
2019-05-02T08:07:57.170Z,97820.77
2019-05-02T08:10:26.056Z,97825.22
2019-05-02T08:12:54.746Z,97830.47
2019-05-02T08:15:24.590Z,97827.19
2019-05-02T08:17:55.072Z,97825.43
2019-05-02T08:20:24.150Z,97827.51
2019-05-02T08:22:52.910Z,97830.61
2019-05-02T08:25:21.617Z,97820.16
2019-05-02T08:27:51.896Z,97826.02
2019-05-02T08:30:22.685Z,97828.16
2019-05-02T08:32:51.399Z,97820.70
2019-05-02T08:35:20.120Z,97831.41
2019-05-02T08:37:48.826Z,97837.07
2019-05-02T08:40:17.587Z,97827.05
2019-05-02T08:42:46.299Z,97831.09
2019-05-02T08:45:15.411Z,97833.79
2019-05-02T08:47:44.120Z,97826.77
2019-05-02T08:50:13.137Z,97824.39
2019-05-02T08:52:42.766Z,97816.76
2019-05-02T08:55:12.433Z,97831.30
2019-05-02T08:57:41.137Z,97828.53
2019-05-02T09:00:11.853Z,97829.31
2019-05-02T09:02:41.929Z,97825.28
2019-05-02T09:05:11.688Z,97824.94
2019-05-02T09:07:42.937Z,97828.70
2019-05-02T09:10:11.325Z,97821.59
2019-05-02T09:12:44.289Z,97825.50
2019-05-02T09:15:11.789Z,97815.91
2019-05-02T09:17:46.569Z,97821.41
2019-05-02T09:20:18.632Z,97810.34
2019-05-02T09:22:46.707Z,97815.30
2019-05-02T09:25:13.839Z,97811.08
2019-05-02T09:27:42.753Z,97808.38
2019-05-02T09:30:12.209Z,97814.37
2019-05-02T09:32:41.860Z,97809.50
2019-05-02T09:35:11.715Z,97801.20
2019-05-02T09:37:41.911Z,97799.94
2019-05-02T09:40:16.377Z,97796.04
2019-05-02T09:42:43.061Z,97794.67
2019-05-02T09:45:16.073Z,97796.94
2019-05-02T09:47:55.838Z,97797.42
2019-05-02T09:50:20.451Z,97784.08
2019-05-02T09:52:47.582Z,97777.88
2019-05-02T09:55:17.408Z,97784.05
2019-05-02T09:57:46.317Z,97785.83
2019-05-02T10:00:33.590Z,97779.12
2019-05-02T10:02:58.369Z,97779.02
2019-05-02T10:05:27.078Z,97768.19
2019-05-02T10:07:57.571Z,97778.69
2019-05-02T10:10:26.626Z,97761.50
2019-05-02T10:12:55.389Z,97766.55
2019-05-02T10:15:24.197Z,97772.77
2019-05-02T10:17:52.909Z,97777.94
2019-05-02T10:20:23.506Z,97769.02
2019-05-02T10:22:53.039Z,97772.45
2019-05-02T10:25:23.137Z,97760.52
2019-05-02T10:27:52.420Z,97763.44
2019-05-02T10:30:23.226Z,97757.98
2019-05-02T10:32:57.082Z,97755.11
2019-05-02T10:35:28.177Z,97754.36
2019-05-02T10:37:54.441Z,97750.34
2019-05-02T10:40:23.147Z,97739.09
2019-05-02T10:42:52.288Z,97739.36
2019-05-02T10:45:22.515Z,97735.03
2019-05-02T10:47:52.690Z,97741.03
2019-05-02T10:50:32.873Z,97741.66
2019-05-02T10:53:03.549Z,97740.99
2019-05-02T10:55:33.185Z,97744.04
2019-05-02T10:58:02.113Z,97742.61
2019-05-02T11:00:32.640Z,97735.15
2019-05-02T11:03:12.169Z,97731.23
2019-05-02T11:06:05.536Z,97735.29
2019-05-02T11:08:31.953Z,97721.59
2019-05-02T11:11:02.385Z,97716.95
2019-05-02T11:13:53.422Z,97722.23
2019-05-02T11:16:26.258Z,97721.61
2019-05-02T11:18:56.583Z,97720.59
2019-05-02T11:21:25.417Z,97717.84
2019-05-02T11:23:54.305Z,97712.48
2019-05-02T11:26:25.039Z,97712.15
2019-05-02T11:28:53.457Z,97707.58
2019-05-02T11:31:22.507Z,97709.05
2019-05-02T11:33:52.798Z,97729.78
2019-05-02T11:36:22.329Z,97716.97
2019-05-02T11:38:59.049Z,97733.16
2019-05-02T11:41:22.424Z,97746.66
2019-05-02T11:43:54.123Z,97751.14
2019-05-02T11:46:22.251Z,97755.81
2019-05-02T11:48:56.373Z,97750.70
2019-05-02T11:51:22.753Z,97760.16
2019-05-02T11:53:52.743Z,97769.23
2019-05-02T11:56:22.200Z,97768.13
2019-05-02T11:58:52.883Z,97784.56
2019-05-02T12:01:35.066Z,97767.06
2019-05-02T12:03:52.834Z,97770.14
2019-05-02T12:06:22.587Z,97757.30
2019-05-02T12:08:52.482Z,97744.98
2019-05-02T12:11:22.891Z,97727.82
2019-05-02T12:13:56.640Z,97717.97
2019-05-02T12:16:22.954Z,97710.81
2019-05-02T12:18:53.729Z,97704.41
2019-05-02T12:21:22.983Z,97706.89
2019-05-02T12:23:52.616Z,97700.91
2019-05-02T12:26:22.200Z,97705.23
2019-05-02T12:28:52.694Z,97696.12
2019-05-02T12:31:32.128Z,97695.45
2019-05-02T12:34:02.693Z,97697.02
2019-05-02T12:36:33.371Z,97687.23
2019-05-02T12:39:02.580Z,97688.88
2019-05-02T12:41:33.171Z,97683.77
2019-05-02T12:44:02.339Z,97675.55
2019-05-02T12:46:31.740Z,97677.39
2019-05-02T12:49:02.567Z,97679.45
2019-05-02T12:51:31.998Z,97671.56
2019-05-02T12:54:02.263Z,97675.34
2019-05-02T12:56:32.434Z,97667.85
2019-05-02T12:59:02.461Z,97668.45
2019-05-02T13:01:32.912Z,97670.97
2019-05-02T13:04:07.245Z,97670.42
2019-05-02T13:06:37.251Z,97667.02
2019-05-02T13:09:08.775Z,97663.57
2019-05-02T13:11:45.936Z,97655.20
2019-05-02T13:14:19.488Z,97657.95
2019-05-02T13:16:46.371Z,97655.26
2019-05-02T13:19:15.199Z,97651.43
2019-05-02T13:21:50.241Z,97652.67
2019-05-02T13:24:28.712Z,97651.47
2019-05-02T13:26:59.407Z,97646.81
2019-05-02T13:29:24.183Z,97653.72
2019-05-02T13:31:57.268Z,97658.03
2019-05-02T13:34:28.386Z,97653.49
2019-05-02T13:36:58.055Z,97641.80
2019-05-02T13:39:34.596Z,97643.83
2019-05-02T13:42:03.412Z,97643.42
2019-05-02T13:44:45.858Z,97649.54
2019-05-02T13:47:16.145Z,97640.98
2019-05-02T13:49:54.055Z,97646.51
2019-05-02T13:52:15.318Z,97645.58
2019-05-02T13:54:44.020Z,97642.26
2019-05-02T13:57:12.831Z,97637.77
2019-05-02T13:59:41.769Z,97634.30
2019-05-02T14:02:31.655Z,97629.37
2019-05-02T14:05:02.140Z,97633.89
2019-05-02T14:07:32.660Z,97624.66
2019-05-02T14:10:02.726Z,97630.63
2019-05-02T14:12:48.346Z,97628.20
2019-05-02T14:15:19.048Z,97634.95
2019-05-02T14:17:49.602Z,97626.52
2019-05-02T14:20:22.193Z,97628.15
2019-05-02T14:22:52.533Z,97630.34
2019-05-02T14:25:22.292Z,97630.48
2019-05-02T14:27:55.318Z,97635.77
2019-05-02T14:30:36.032Z,97628.83
2019-05-02T14:32:53.680Z,97625.77
2019-05-02T14:35:28.396Z,97628.45
2019-05-02T14:38:13.555Z,97624.12
2019-05-02T14:40:46.574Z,97626.08
2019-05-02T14:43:16.852Z,97614.24
2019-05-02T14:45:45.566Z,97627.84
2019-05-02T14:48:21.411Z,97623.44
2019-05-02T14:50:47.828Z,97624.94
2019-05-02T14:53:21.187Z,97629.34
2019-05-02T14:55:48.544Z,97628.27
2019-05-02T14:58:17.286Z,97627.12
2019-05-02T15:00:48.155Z,97629.87
2019-05-02T15:03:19.057Z,97628.48
2019-05-02T15:05:47.423Z,97627.06
2019-05-02T15:08:16.132Z,97628.81
2019-05-02T15:10:52.530Z,97627.38
2019-05-02T15:13:15.273Z,97629.31
2019-05-02T15:15:43.979Z,97625.27
2019-05-02T15:18:17.370Z,97631.11
2019-05-02T15:20:43.121Z,97624.43
2019-05-02T15:23:17.594Z,97623.94
2019-05-02T15:25:42.465Z,97620.86
2019-05-02T15:28:13.169Z,97622.45
2019-05-02T15:30:49.037Z,97622.91
2019-05-02T15:33:17.032Z,97623.14
2019-05-02T15:35:50.186Z,97621.83
2019-05-02T15:38:27.019Z,97616.25
2019-05-02T15:40:51.528Z,97616.25
2019-05-02T15:43:19.798Z,97619.69
2019-05-02T15:45:48.507Z,97612.78
2019-05-02T15:48:22.814Z,97615.14
2019-05-02T15:50:54.559Z,97613.69
2019-05-02T15:53:25.671Z,97621.00
2019-05-02T15:55:54.382Z,97624.12
2019-05-02T15:58:27.695Z,97630.48
2019-05-02T16:00:56.527Z,97628.23
2019-05-02T16:03:27.201Z,97627.14
2019-05-02T16:05:55.949Z,97629.02
2019-05-02T16:08:24.664Z,97631.10
2019-05-02T16:10:53.640Z,97634.34
2019-05-02T16:13:22.357Z,97637.48
2019-05-02T16:15:52.654Z,97634.91
2019-05-02T16:18:21.644Z,97633.85
2019-05-02T16:21:04.199Z,97635.74
2019-05-02T16:23:29.884Z,97634.67
2019-05-02T16:25:56.812Z,97633.59
2019-05-02T16:28:23.400Z,97635.55
2019-05-02T16:30:53.698Z,97637.83
2019-05-02T16:33:22.413Z,97640.44
2019-05-02T16:35:54.281Z,97642.55
2019-05-02T16:38:22.250Z,97639.63
2019-05-02T16:40:52.603Z,97639.84
2019-05-02T16:43:22.233Z,97646.68
2019-05-02T16:45:52.561Z,97647.28
2019-05-02T16:48:22.190Z,97649.14
2019-05-02T16:50:51.870Z,97655.03
2019-05-02T16:53:22.593Z,97653.51
2019-05-02T16:55:51.051Z,97645.27
2019-05-02T16:58:19.763Z,97652.22
2019-05-02T17:00:48.469Z,97657.31
2019-05-02T17:03:22.015Z,97657.72
2019-05-02T17:05:49.417Z,97655.63
2019-05-02T17:08:36.408Z,97665.25
2019-05-02T17:11:09.759Z,97667.05
2019-05-02T17:13:38.467Z,97669.72
2019-05-02T17:16:13.017Z,97666.66
2019-05-02T17:18:37.638Z,97677.17
2019-05-02T17:21:06.386Z,97681.63
2019-05-02T17:23:37.506Z,97683.16
2019-05-02T17:26:05.640Z,97679.83
2019-05-02T17:28:38.116Z,97688.44
2019-05-02T17:31:04.813Z,97690.39
2019-05-02T17:33:33.577Z,97691.11
2019-05-02T17:36:02.325Z,97694.88
2019-05-02T17:38:32.193Z,97702.62
2019-05-02T17:41:06.467Z,97701.25
2019-05-02T17:43:32.910Z,97704.92
2019-05-02T17:46:04.175Z,97706.05
2019-05-02T17:48:34.740Z,97710.55
2019-05-02T17:51:13.698Z,97711.06
2019-05-02T17:53:49.306Z,97711.30
2019-05-02T17:56:20.280Z,97717.11
2019-05-02T17:58:47.291Z,97717.67
2019-05-02T18:01:15.366Z,97722.27
2019-05-02T18:03:44.081Z,97728.03
2019-05-02T18:06:17.139Z,97728.56
2019-05-02T18:08:46.238Z,97726.41
2019-05-02T18:11:13.744Z,97735.78
2019-05-02T18:13:42.498Z,97733.19
2019-05-02T18:16:15.088Z,97629.84
2019-05-02T18:18:43.688Z,97752.81
2019-05-02T18:21:12.749Z,97751.53
2019-05-02T18:23:42.785Z,97753.45
2019-05-02T18:26:11.639Z,97758.79
2019-05-02T18:28:46.998Z,97761.92
2019-05-02T18:31:12.251Z,97755.56
2019-05-02T18:33:42.487Z,97765.16
2019-05-02T18:36:11.420Z,97767.04
2019-05-02T18:38:41.731Z,97768.91
2019-05-02T18:41:12.100Z,97770.72
2019-05-02T18:43:45.106Z,97771.75
2019-05-02T18:46:12.776Z,97780.89
2019-05-02T18:48:45.720Z,97783.41
2019-05-02T18:51:17.241Z,97788.23
2019-05-02T18:53:42.553Z,97787.02
2019-05-02T18:56:12.438Z,97790.44
2019-05-02T18:58:45.195Z,97795.66
2019-05-02T19:01:15.899Z,97795.19
2019-05-02T19:03:42.294Z,97798.25
2019-05-02T19:06:11.701Z,97796.55
2019-05-02T19:08:46.589Z,97802.20
2019-05-02T19:11:13.865Z,97803.18
2019-05-02T19:13:44.360Z,97808.02
2019-05-02T19:16:13.155Z,97808.50
2019-05-02T19:18:42.551Z,97812.86
2019-05-02T19:21:12.583Z,97816.27
2019-05-02T19:23:42.487Z,97815.11
2019-05-02T19:26:14.693Z,97817.72
2019-05-02T19:28:55.542Z,97822.09
2019-05-02T19:31:25.058Z,97821.78
2019-05-02T19:33:53.776Z,97819.06
2019-05-02T19:36:27.491Z,97822.14
2019-05-02T19:38:57.446Z,97819.57
2019-05-02T19:41:23.521Z,97822.17
2019-05-02T19:43:53.392Z,97823.97
2019-05-02T19:46:24.515Z,97830.11
2019-05-02T19:48:52.691Z,97833.20
2019-05-02T19:51:22.543Z,97831.97
2019-05-02T19:53:59.180Z,97840.17
2019-05-02T19:56:22.003Z,97841.92
2019-05-02T19:58:52.180Z,97840.66
2019-05-02T20:01:22.908Z,97847.71
2019-05-02T20:03:52.018Z,97844.66
2019-05-02T20:06:22.086Z,97850.73
2019-05-02T20:08:52.545Z,97846.81
2019-05-02T20:11:21.937Z,97852.04
2019-05-02T20:13:50.798Z,97855.66
2019-05-02T20:16:23.978Z,97857.89
2019-05-02T20:18:52.688Z,97855.71
2019-05-02T20:21:29.207Z,97857.94
2019-05-02T20:23:57.912Z,97858.44
2019-05-02T20:26:26.618Z,97858.84
2019-05-02T20:28:55.324Z,97858.42
2019-05-02T20:31:24.033Z,97856.69
2019-05-02T20:33:52.796Z,97853.63
2019-05-02T20:36:22.820Z,97858.99
2019-05-02T20:38:52.595Z,97862.80
2019-05-02T20:41:22.463Z,97858.03
2019-05-02T20:43:51.699Z,97858.53
2019-05-02T20:46:21.880Z,97864.22
2019-05-02T20:48:52.551Z,97865.57
2019-05-02T20:51:22.775Z,97866.05
2019-05-02T20:53:52.637Z,97869.05
2019-05-02T20:56:22.985Z,97867.80
2019-05-02T20:58:52.655Z,97873.38
2019-05-02T21:01:21.772Z,97867.34
2019-05-02T21:03:52.137Z,97862.53
2019-05-02T21:06:37.069Z,97865.17
2019-05-02T21:08:57.659Z,97863.39
2019-05-02T21:11:27.285Z,97865.11
2019-05-02T21:13:55.983Z,97868.20
2019-05-02T21:16:24.745Z,97869.97
2019-05-02T21:18:53.435Z,97866.47
2019-05-02T21:21:24.186Z,97870.84
2019-05-02T21:23:53.019Z,97876.98
2019-05-02T21:26:22.137Z,97872.64
2019-05-02T21:28:52.167Z,97876.53
2019-05-02T21:31:22.482Z,97878.28
2019-05-02T21:33:51.923Z,97885.19
2019-05-02T21:36:22.715Z,97876.45
2019-05-02T21:38:52.145Z,97880.80
2019-05-02T21:41:22.185Z,97879.98
2019-05-02T21:43:51.823Z,97882.68
2019-05-02T21:46:22.383Z,97881.36
2019-05-02T21:48:52.654Z,97887.97
2019-05-02T21:51:28.958Z,97894.06
2019-05-02T21:54:14.288Z,97889.28
2019-05-02T21:56:44.624Z,97895.84
2019-05-02T21:59:13.422Z,97898.44
2019-05-02T22:01:52.097Z,97905.48
2019-05-02T22:04:22.530Z,97902.03
2019-05-02T22:06:52.214Z,97910.73
2019-05-02T22:09:23.061Z,97908.23
2019-05-02T22:11:52.304Z,97905.58
2019-05-02T22:14:22.390Z,97909.94
2019-05-02T22:16:52.965Z,97916.02
2019-05-02T22:19:21.675Z,97915.13
2019-05-02T22:21:52.229Z,97917.31
2019-05-02T22:24:20.822Z,97920.36
2019-05-02T22:26:49.521Z,97920.77
2019-05-02T22:29:18.230Z,97915.08
2019-05-02T22:31:46.939Z,97919.04
2019-05-02T22:34:15.654Z,97918.63
2019-05-02T22:36:44.414Z,97915.57
2019-05-02T22:39:22.172Z,97915.61
2019-05-02T22:41:52.577Z,97907.33
2019-05-02T22:44:21.888Z,97910.84
2019-05-02T22:46:52.107Z,97906.95
2019-05-02T22:49:22.471Z,97904.32
2019-05-02T22:51:51.362Z,97904.73
2019-05-02T22:54:27.893Z,97904.32
2019-05-02T22:56:52.112Z,97900.86
2019-05-02T22:59:23.662Z,97896.52
2019-05-02T23:01:52.763Z,97897.00
2019-05-02T23:04:23.501Z,97900.02
2019-05-02T23:06:52.896Z,97899.22
2019-05-02T23:09:22.152Z,97894.85
2019-05-02T23:11:51.851Z,97892.25
2019-05-02T23:14:22.098Z,97895.25
2019-05-02T23:16:52.862Z,97887.88
2019-05-02T23:19:22.951Z,97890.48
2019-05-02T23:21:52.694Z,97887.03
2019-05-02T23:24:35.956Z,97885.69
2019-05-02T23:26:55.121Z,97890.93
2019-05-02T23:29:23.823Z,97890.89
2019-05-02T23:31:52.534Z,97888.73
2019-05-02T23:34:23.372Z,97883.13
2019-05-02T23:36:52.179Z,97882.71
2019-05-02T23:39:21.212Z,97888.78
2019-05-02T23:41:49.916Z,97887.05
2019-05-02T23:44:18.628Z,97892.75
2019-05-02T23:46:47.342Z,97885.38
2019-05-02T23:49:16.052Z,97885.40
2019-05-02T23:51:44.819Z,97884.55
2019-05-02T23:54:13.523Z,97884.11
2019-05-02T23:56:43.035Z,97879.76
2019-05-02T23:59:12.305Z,97880.63
